createdAt,value
2019-05-19T00:00:51.693Z,49.57
2019-05-19T00:03:21.197Z,51.27
2019-05-19T00:05:50.624Z,51.10
2019-05-19T00:08:20.075Z,49.67
2019-05-19T00:10:49.498Z,49.20
2019-05-19T00:13:19.002Z,48.87
2019-05-19T00:15:48.430Z,49.67
2019-05-19T00:18:17.861Z,51.77
2019-05-19T00:20:47.303Z,53.03
2019-05-19T00:23:16.726Z,52.13
2019-05-19T00:25:46.164Z,51.90
2019-05-19T00:28:15.613Z,52.07
2019-05-19T00:30:45.308Z,50.90
2019-05-19T00:33:14.746Z,51.00
2019-05-19T00:35:44.169Z,53.53
2019-05-19T00:38:13.802Z,53.50
2019-05-19T00:40:43.283Z,54.73
2019-05-19T00:43:12.735Z,53.80
2019-05-19T00:45:42.243Z,53.63
2019-05-19T00:48:11.750Z,54.17
2019-05-19T00:50:41.260Z,54.47
2019-05-19T00:53:10.688Z,53.03
2019-05-19T00:55:40.258Z,53.20
2019-05-19T00:58:10.742Z,53.33
2019-05-19T01:00:40.244Z,57.23
2019-05-19T01:03:09.697Z,52.43
2019-05-19T01:05:39.118Z,57.63
2019-05-19T01:08:08.638Z,57.53
2019-05-19T01:10:38.149Z,56.97
2019-05-19T01:13:07.579Z,55.47
2019-05-19T01:15:37.096Z,55.90
2019-05-19T01:18:06.518Z,56.83
2019-05-19T01:20:35.963Z,58.87
2019-05-19T01:23:05.660Z,58.17
2019-05-19T01:25:35.087Z,59.07
2019-05-19T01:28:04.934Z,57.67
2019-05-19T01:30:34.438Z,56.40
2019-05-19T01:33:03.975Z,55.43
2019-05-19T01:35:33.476Z,53.43
2019-05-19T01:38:02.939Z,55.67
2019-05-19T01:40:32.389Z,57.87
2019-05-19T01:43:01.807Z,57.97
2019-05-19T01:45:31.260Z,55.33
2019-05-19T01:48:00.686Z,59.03
2019-05-19T01:50:30.132Z,57.03
2019-05-19T01:52:59.585Z,59.00
2019-05-19T01:55:29.073Z,60.17
2019-05-19T01:57:58.512Z,61.67
2019-05-19T02:00:28.086Z,56.80
2019-05-19T02:02:57.549Z,60.77
2019-05-19T02:05:26.965Z,61.13
2019-05-19T02:07:56.901Z,59.73
2019-05-19T02:10:26.321Z,57.67
2019-05-19T02:12:55.745Z,60.40
2019-05-19T02:15:25.652Z,57.93
2019-05-19T02:17:55.110Z,58.53
2019-05-19T02:20:32.802Z,60.20
2019-05-19T02:22:55.753Z,60.33
2019-05-19T02:25:25.330Z,57.87
2019-05-19T02:27:54.852Z,60.33
2019-05-19T02:30:24.338Z,59.53
2019-05-19T02:32:53.776Z,59.83
2019-05-19T02:35:23.280Z,62.47
2019-05-19T02:37:52.717Z,58.27
2019-05-19T02:40:22.356Z,60.63
2019-05-19T02:42:53.525Z,60.00
2019-05-19T02:45:23.604Z,60.83
2019-05-19T02:47:54.268Z,59.90
2019-05-19T02:50:25.927Z,60.87
2019-05-19T02:52:57.798Z,61.13
2019-05-19T02:55:27.761Z,62.40
2019-05-19T02:57:58.354Z,60.10
2019-05-19T03:00:37.922Z,59.47
2019-05-19T03:03:08.438Z,61.13
2019-05-19T03:05:38.940Z,63.33
2019-05-19T03:08:08.949Z,61.43
2019-05-19T03:10:38.755Z,63.27
2019-05-19T03:13:08.580Z,63.73
2019-05-19T03:15:38.043Z,62.00
2019-05-19T03:18:07.610Z,63.70
2019-05-19T03:20:37.411Z,62.40
2019-05-19T03:23:06.844Z,64.20
2019-05-19T03:25:36.354Z,65.20
2019-05-19T03:28:05.952Z,63.73
2019-05-19T03:30:37.037Z,64.37
2019-05-19T03:33:16.961Z,65.47
2019-05-19T03:35:47.119Z,64.80
2019-05-19T03:38:16.549Z,65.80
2019-05-19T03:40:46.008Z,67.33
2019-05-19T03:43:15.433Z,65.67
2019-05-19T03:45:48.009Z,65.60
2019-05-19T03:48:18.001Z,64.63
2019-05-19T03:50:47.715Z,65.57
2019-05-19T03:53:17.245Z,65.63
2019-05-19T03:55:46.684Z,65.07
2019-05-19T03:58:16.125Z,67.67
2019-05-19T04:00:45.545Z,69.33
2019-05-19T04:03:17.707Z,67.57
2019-05-19T04:05:47.216Z,68.20
2019-05-19T04:08:16.703Z,72.07
2019-05-19T04:10:46.142Z,71.30
2019-05-19T04:13:15.583Z,70.67
2019-05-19T04:15:45.001Z,70.10
2019-05-19T04:18:14.446Z,70.10
2019-05-19T04:20:44.101Z,69.13
2019-05-19T04:23:13.546Z,70.93
2019-05-19T04:25:42.985Z,70.00
2019-05-19T04:28:12.427Z,69.60
2019-05-19T04:30:41.865Z,69.60
2019-05-19T04:33:11.303Z,72.57
2019-05-19T04:35:43.670Z,69.90
2019-05-19T04:38:13.100Z,71.30
2019-05-19T04:40:43.838Z,70.07
2019-05-19T04:43:13.301Z,71.30
2019-05-19T04:45:42.722Z,69.50
2019-05-19T04:48:12.150Z,71.00
2019-05-19T04:50:41.587Z,66.57
2019-05-19T04:53:11.035Z,68.00
2019-05-19T04:55:40.528Z,71.07
2019-05-19T04:58:09.963Z,71.97
2019-05-19T05:00:39.400Z,72.63
2019-05-19T05:03:08.835Z,73.10
2019-05-19T05:05:38.282Z,68.97
2019-05-19T05:08:07.722Z,73.20
2019-05-19T05:10:37.450Z,72.87
2019-05-19T05:13:06.904Z,69.60
2019-05-19T05:15:36.324Z,71.53
2019-05-19T05:18:05.944Z,71.73
2019-05-19T05:20:35.372Z,71.57
2019-05-19T05:23:05.267Z,71.73
2019-05-19T05:25:34.712Z,71.53
2019-05-19T05:28:04.214Z,72.27
2019-05-19T05:30:33.671Z,69.73
2019-05-19T05:33:03.089Z,67.63
2019-05-19T05:35:32.555Z,67.47
2019-05-19T05:38:01.988Z,67.33
2019-05-19T05:40:31.413Z,71.03
2019-05-19T05:43:01.197Z,69.57
2019-05-19T05:45:30.783Z,67.10
2019-05-19T05:48:00.318Z,68.23
2019-05-19T05:50:29.739Z,68.07
2019-05-19T05:52:59.152Z,68.53
2019-05-19T05:55:28.652Z,66.37
2019-05-19T05:57:58.393Z,69.57
2019-05-19T06:00:27.968Z,67.40
2019-05-19T06:02:57.461Z,68.17
2019-05-19T06:05:26.901Z,68.80
2019-05-19T06:07:56.349Z,68.80
2019-05-19T06:10:26.102Z,67.73
2019-05-19T06:12:55.552Z,64.10
2019-05-19T06:15:24.976Z,66.43
2019-05-19T06:17:54.448Z,66.23
2019-05-19T06:20:23.868Z,64.23
2019-05-19T06:22:56.982Z,66.17
2019-05-19T06:25:24.757Z,62.83
2019-05-19T06:27:54.220Z,66.63
2019-05-19T06:30:23.737Z,66.40
2019-05-19T06:32:57.368Z,64.07
2019-05-19T06:35:26.867Z,67.97
2019-05-19T06:37:56.326Z,63.37
2019-05-19T06:40:26.326Z,65.63
2019-05-19T06:42:56.187Z,65.40
2019-05-19T06:45:25.653Z,67.03
2019-05-19T06:47:55.368Z,65.87
2019-05-19T06:50:24.868Z,66.00
2019-05-19T06:52:54.306Z,63.07
2019-05-19T06:55:23.834Z,65.30
2019-05-19T06:57:53.261Z,64.73
2019-05-19T07:00:23.234Z,65.37
2019-05-19T07:02:52.643Z,65.93
2019-05-19T07:05:22.072Z,64.57
2019-05-19T07:07:51.527Z,63.30
2019-05-19T07:10:21.043Z,66.43
2019-05-19T07:12:50.508Z,61.73
2019-05-19T07:15:20.290Z,63.93
2019-05-19T07:17:49.720Z,66.07
2019-05-19T07:20:19.227Z,66.23
2019-05-19T07:22:49.125Z,63.63
2019-05-19T07:25:18.597Z,65.03
2019-05-19T07:27:48.009Z,63.77
2019-05-19T07:30:18.347Z,64.83
2019-05-19T07:32:47.792Z,64.97
2019-05-19T07:35:17.378Z,67.03
2019-05-19T07:37:46.969Z,64.83
2019-05-19T07:40:16.478Z,65.90
2019-05-19T07:42:46.266Z,66.03
2019-05-19T07:45:16.181Z,64.00
2019-05-19T07:47:45.619Z,61.60
2019-05-19T07:50:15.129Z,62.77
2019-05-19T07:52:44.564Z,62.90
2019-05-19T07:55:14.248Z,60.33
2019-05-19T07:57:43.713Z,61.03
2019-05-19T08:00:13.633Z,60.27
2019-05-19T08:02:43.066Z,61.10
2019-05-19T08:05:12.654Z,61.00
2019-05-19T08:07:42.188Z,62.73
2019-05-19T08:10:11.839Z,59.93
2019-05-19T08:12:41.274Z,63.23
2019-05-19T08:15:11.631Z,62.77
2019-05-19T08:17:41.066Z,61.53
2019-05-19T08:20:11.875Z,60.97
2019-05-19T08:22:41.279Z,59.57
2019-05-19T08:25:11.109Z,62.13
2019-05-19T08:27:40.548Z,58.03
2019-05-19T08:30:11.375Z,61.40
2019-05-19T08:32:40.832Z,59.23
2019-05-19T08:35:10.551Z,59.50
2019-05-19T08:37:40.012Z,59.97
2019-05-19T08:40:09.843Z,61.27
2019-05-19T08:42:39.274Z,60.03
2019-05-19T08:45:10.266Z,63.93
2019-05-19T08:47:39.694Z,61.50
2019-05-19T08:50:09.499Z,62.97
2019-05-19T08:52:38.998Z,61.93
2019-05-19T08:55:09.164Z,62.33
2019-05-19T08:57:38.626Z,63.57
2019-05-19T09:00:08.781Z,63.07
2019-05-19T09:02:38.266Z,62.70
2019-05-19T09:05:08.804Z,61.07
2019-05-19T09:07:38.244Z,61.73
2019-05-19T09:10:11.489Z,59.23
2019-05-19T09:12:40.930Z,57.60
2019-05-19T09:15:12.122Z,59.73
2019-05-19T09:17:41.554Z,58.27
2019-05-19T09:20:12.048Z,56.00
2019-05-19T09:22:41.830Z,52.50
2019-05-19T09:25:11.571Z,49.57
2019-05-19T09:27:41.078Z,48.03
2019-05-19T09:30:12.198Z,48.07
2019-05-19T09:32:42.012Z,46.37
2019-05-19T09:35:13.408Z,46.50
2019-05-19T09:37:42.833Z,47.83
2019-05-19T09:40:13.112Z,45.93
2019-05-19T09:42:42.545Z,43.00
2019-05-19T09:45:13.819Z,44.23
2019-05-19T09:47:43.574Z,42.13
2019-05-19T09:50:14.905Z,43.93
2019-05-19T09:52:44.423Z,43.83
2019-05-19T09:55:14.180Z,43.60
2019-05-19T09:57:43.637Z,43.97
2019-05-19T10:00:13.900Z,43.00
2019-05-19T10:02:43.358Z,45.40
2019-05-19T10:05:13.163Z,45.00
2019-05-19T10:07:42.584Z,46.20
2019-05-19T10:10:24.028Z,45.50
2019-05-19T10:12:53.467Z,47.50
2019-05-19T10:15:22.926Z,44.87
2019-05-19T10:17:52.341Z,43.90
2019-05-19T10:20:21.886Z,44.30
2019-05-19T10:22:51.403Z,44.37
2019-05-19T10:25:22.869Z,45.53
2019-05-19T10:27:52.275Z,43.10
2019-05-19T10:30:21.936Z,42.63
2019-05-19T10:32:51.435Z,43.23
2019-05-19T10:35:20.885Z,40.80
2019-05-19T10:37:50.322Z,39.43
2019-05-19T10:40:20.482Z,40.27
2019-05-19T10:42:49.905Z,39.50
2019-05-19T10:45:19.572Z,41.57
2019-05-19T10:47:49.012Z,41.00
2019-05-19T10:50:18.504Z,39.43
2019-05-19T10:52:48.302Z,39.70
2019-05-19T10:55:17.918Z,39.57
2019-05-19T10:57:47.368Z,36.27
2019-05-19T11:00:17.310Z,38.57
2019-05-19T11:02:46.743Z,38.83
2019-05-19T11:05:16.406Z,38.73
2019-05-19T11:07:45.827Z,40.67
2019-05-19T11:10:15.685Z,39.87
2019-05-19T11:12:47.009Z,39.97
2019-05-19T11:15:16.827Z,40.63
2019-05-19T11:17:46.263Z,39.37
2019-05-19T11:20:15.835Z,38.97
2019-05-19T11:22:45.305Z,38.47
2019-05-19T11:25:15.004Z,39.87
2019-05-19T11:27:44.761Z,38.97
2019-05-19T11:30:14.734Z,38.07
2019-05-19T11:32:44.160Z,37.93
2019-05-19T11:35:13.666Z,35.90
2019-05-19T11:37:43.098Z,35.57
2019-05-19T11:40:12.683Z,36.23
2019-05-19T11:42:42.115Z,33.77
2019-05-19T11:45:11.676Z,34.37
2019-05-19T11:47:41.414Z,33.40
2019-05-19T11:50:11.277Z,33.10
2019-05-19T11:52:40.717Z,35.23
2019-05-19T11:55:10.391Z,34.53
2019-05-19T11:57:39.823Z,32.57
2019-05-19T12:00:10.199Z,35.33
2019-05-19T12:02:39.622Z,34.13
2019-05-19T12:05:09.211Z,34.33
2019-05-19T12:07:38.641Z,34.47
2019-05-19T12:10:08.887Z,36.20
2019-05-19T12:12:38.400Z,34.83
2019-05-19T12:15:09.247Z,36.17
2019-05-19T12:17:38.743Z,34.83
2019-05-19T12:20:08.819Z,35.37
2019-05-19T12:22:38.735Z,34.40
2019-05-19T12:25:08.833Z,34.27
2019-05-19T12:27:38.281Z,33.33
2019-05-19T12:30:08.942Z,34.10
2019-05-19T12:32:38.372Z,33.53
2019-05-19T12:35:10.638Z,31.67
2019-05-19T12:37:40.048Z,30.10
2019-05-19T12:40:09.715Z,32.30
2019-05-19T12:42:39.407Z,30.40
2019-05-19T12:45:10.218Z,28.47
2019-05-19T12:47:39.924Z,28.80
2019-05-19T12:50:10.289Z,28.40
2019-05-19T12:52:39.715Z,28.10
2019-05-19T12:55:09.858Z,28.87
2019-05-19T12:57:39.661Z,28.67
2019-05-19T13:00:09.324Z,29.07
2019-05-19T13:02:38.760Z,29.03
2019-05-19T13:05:09.142Z,30.00
2019-05-19T13:07:38.633Z,29.63
2019-05-19T13:10:08.980Z,28.20
2019-05-19T13:12:38.505Z,29.33
2019-05-19T13:15:11.568Z,28.37
2019-05-19T13:17:41.095Z,28.53
2019-05-19T13:20:10.975Z,29.77
2019-05-19T13:22:40.428Z,28.87
2019-05-19T13:25:09.991Z,29.87
2019-05-19T13:27:39.417Z,29.27
2019-05-19T13:30:09.879Z,29.53
2019-05-19T13:32:39.378Z,30.47
2019-05-19T13:35:09.256Z,29.93
2019-05-19T13:37:39.088Z,30.27
2019-05-19T13:40:08.924Z,29.20
2019-05-19T13:42:38.419Z,29.13
2019-05-19T13:45:08.737Z,29.03
2019-05-19T13:47:38.362Z,29.73
2019-05-19T13:50:08.852Z,28.97
2019-05-19T13:52:38.384Z,29.87
2019-05-19T13:55:09.520Z,29.53
2019-05-19T13:57:39.230Z,29.57
2019-05-19T14:00:10.663Z,28.97
2019-05-19T14:02:40.334Z,30.07
2019-05-19T14:05:10.422Z,29.30
2019-05-19T14:07:39.875Z,28.73
2019-05-19T14:10:09.906Z,29.50
2019-05-19T14:12:39.440Z,29.13
2019-05-19T14:15:09.354Z,28.53
2019-05-19T14:17:39.111Z,28.90
2019-05-19T14:20:09.284Z,29.80
2019-05-19T14:22:38.697Z,28.87
2019-05-19T14:25:08.291Z,28.70
2019-05-19T14:27:37.710Z,29.53
2019-05-19T14:30:08.979Z,30.13
2019-05-19T14:32:38.414Z,28.70
2019-05-19T14:35:10.750Z,29.63
2019-05-19T14:37:40.264Z,33.17
2019-05-19T14:40:10.103Z,30.87
2019-05-19T14:42:43.716Z,30.07
2019-05-19T14:45:14.071Z,28.37
2019-05-19T14:47:43.521Z,29.83
2019-05-19T14:50:13.183Z,30.20
2019-05-19T14:52:42.616Z,29.57
2019-05-19T14:55:12.122Z,28.63
2019-05-19T14:57:45.456Z,29.80
2019-05-19T15:00:14.806Z,30.50
2019-05-19T15:02:44.235Z,30.13
2019-05-19T15:05:14.798Z,30.37
2019-05-19T15:07:44.321Z,30.07
2019-05-19T15:10:14.765Z,28.53
2019-05-19T15:12:44.358Z,32.13
2019-05-19T15:15:14.332Z,29.80
2019-05-19T15:17:43.751Z,30.77
2019-05-19T15:20:13.859Z,30.53
2019-05-19T15:22:43.590Z,29.43
2019-05-19T15:25:14.057Z,29.77
2019-05-19T15:27:43.477Z,29.13
2019-05-19T15:30:14.249Z,28.67
2019-05-19T15:32:43.686Z,29.87
2019-05-19T15:35:13.439Z,29.63
2019-05-19T15:37:42.890Z,29.47
2019-05-19T15:40:12.733Z,28.53
2019-05-19T15:42:42.158Z,27.83
2019-05-19T15:45:12.109Z,27.67
2019-05-19T15:47:41.624Z,25.67
2019-05-19T15:50:11.502Z,25.30
2019-05-19T15:52:40.931Z,25.43
2019-05-19T15:55:10.500Z,26.20
2019-05-19T15:57:40.308Z,28.23
2019-05-19T16:00:10.674Z,30.70
2019-05-19T16:02:40.172Z,29.40
2019-05-19T16:05:09.899Z,30.53
2019-05-19T16:07:39.342Z,30.57
2019-05-19T16:10:10.479Z,29.43
2019-05-19T16:12:39.910Z,31.90
2019-05-19T16:15:10.374Z,32.77
2019-05-19T16:17:39.791Z,33.43
2019-05-19T16:20:09.745Z,33.33
2019-05-19T16:22:39.252Z,33.70
2019-05-19T16:25:09.741Z,33.80
2019-05-19T16:27:39.372Z,35.00
2019-05-19T16:30:09.523Z,33.67
2019-05-19T16:32:39.223Z,34.93
2019-05-19T16:35:08.829Z,36.63
2019-05-19T16:37:38.699Z,36.80
2019-05-19T16:40:09.062Z,35.17
2019-05-19T16:42:38.476Z,33.67
2019-05-19T16:45:10.247Z,33.97
2019-05-19T16:47:39.686Z,31.97
2019-05-19T16:50:10.821Z,32.17
2019-05-19T16:52:40.235Z,32.37
2019-05-19T16:55:23.605Z,32.43
2019-05-19T16:57:53.261Z,29.50
2019-05-19T17:00:24.234Z,28.43
2019-05-19T17:02:53.756Z,28.17
2019-05-19T17:05:23.333Z,26.20
2019-05-19T17:07:52.890Z,25.70
2019-05-19T17:10:22.311Z,24.60
2019-05-19T17:12:51.743Z,23.87
2019-05-19T17:15:21.634Z,22.93
2019-05-19T17:17:51.286Z,23.37
2019-05-19T17:20:21.363Z,22.73
2019-05-19T17:22:50.933Z,20.70
2019-05-19T17:25:20.435Z,19.80
2019-05-19T17:27:50.125Z,19.07
2019-05-19T17:30:21.053Z,19.57
2019-05-19T17:32:50.508Z,20.33
2019-05-19T17:35:20.081Z,19.30
2019-05-19T17:37:49.504Z,18.37
2019-05-19T17:40:19.508Z,19.80
2019-05-19T17:42:49.002Z,18.40
2019-05-19T17:45:18.904Z,19.30
2019-05-19T17:47:48.345Z,19.47
2019-05-19T17:50:22.521Z,17.83
2019-05-19T17:52:52.040Z,18.50
2019-05-19T17:55:21.618Z,19.13
2019-05-19T17:57:51.208Z,18.47
2019-05-19T18:00:37.402Z,18.20
2019-05-19T18:03:07.858Z,18.33
2019-05-19T18:05:37.547Z,17.50
2019-05-19T18:08:07.233Z,18.53
2019-05-19T18:10:36.820Z,15.87
2019-05-19T18:13:06.323Z,17.67
2019-05-19T18:15:36.987Z,18.30
2019-05-19T18:18:06.422Z,18.53
2019-05-19T18:20:35.929Z,18.50
2019-05-19T18:23:05.400Z,17.97
2019-05-19T18:25:34.938Z,17.07
2019-05-19T18:28:04.510Z,18.63
2019-05-19T18:30:33.995Z,18.90
2019-05-19T18:33:03.761Z,18.07
2019-05-19T18:35:33.372Z,18.70
2019-05-19T18:38:02.793Z,18.57
2019-05-19T18:40:32.579Z,19.07
2019-05-19T18:43:02.009Z,18.60
2019-05-19T18:45:31.465Z,19.17
2019-05-19T18:48:00.903Z,20.87
2019-05-19T18:50:30.305Z,20.33
2019-05-19T18:53:00.090Z,21.23
2019-05-19T18:55:29.804Z,21.27
2019-05-19T18:57:59.264Z,22.80
2019-05-19T19:00:35.350Z,23.90
2019-05-19T19:03:05.504Z,25.03
2019-05-19T19:05:35.020Z,26.20
2019-05-19T19:08:06.164Z,27.23
2019-05-19T19:10:35.643Z,26.40
2019-05-19T19:13:05.089Z,27.10
2019-05-19T19:15:34.622Z,27.20
2019-05-19T19:18:04.036Z,28.97
2019-05-19T19:20:34.359Z,30.57
2019-05-19T19:23:03.946Z,32.40
2019-05-19T19:25:33.742Z,30.67
2019-05-19T19:28:03.262Z,31.43
2019-05-19T19:30:34.418Z,31.80
2019-05-19T19:33:03.892Z,30.63
2019-05-19T19:35:39.132Z,30.63
2019-05-19T19:38:04.509Z,32.27
2019-05-19T19:40:34.312Z,30.80
2019-05-19T19:43:03.877Z,30.17
2019-05-19T19:45:33.383Z,27.90
2019-05-19T19:48:02.835Z,30.20
2019-05-19T19:50:32.252Z,30.83
2019-05-19T19:53:01.821Z,31.90
2019-05-19T19:55:31.291Z,32.97
2019-05-19T19:58:00.711Z,31.97
2019-05-19T20:00:44.403Z,31.37
2019-05-19T20:03:14.272Z,32.90
2019-05-19T20:05:44.586Z,34.00
2019-05-19T20:08:14.084Z,34.27
2019-05-19T20:10:43.539Z,33.83
2019-05-19T20:13:12.972Z,35.10
2019-05-19T20:15:42.470Z,35.07
2019-05-19T20:18:11.916Z,35.60
2019-05-19T20:20:41.353Z,34.73
2019-05-19T20:23:10.863Z,35.93
2019-05-19T20:25:40.294Z,34.83
2019-05-19T20:28:09.729Z,37.07
2019-05-19T20:30:39.326Z,36.90
2019-05-19T20:33:11.873Z,38.47
2019-05-19T20:35:42.593Z,37.27
2019-05-19T20:38:14.715Z,37.77
2019-05-19T20:40:44.712Z,40.50
2019-05-19T20:43:14.447Z,38.47
2019-05-19T20:45:43.957Z,37.90
2019-05-19T20:48:13.491Z,38.83
2019-05-19T20:50:42.991Z,39.73
2019-05-19T20:53:12.517Z,39.80
2019-05-19T20:55:41.932Z,39.20
2019-05-19T20:58:11.379Z,39.53
2019-05-19T21:00:49.980Z,40.43
2019-05-19T21:03:11.962Z,41.50
2019-05-19T21:05:41.420Z,42.03
2019-05-19T21:08:10.923Z,42.60
2019-05-19T21:10:40.440Z,41.97
2019-05-19T21:13:09.888Z,43.03
2019-05-19T21:15:39.325Z,43.53
2019-05-19T21:18:08.759Z,42.33
2019-05-19T21:20:38.257Z,45.43
2019-05-19T21:23:07.687Z,43.80
2019-05-19T21:25:37.157Z,43.47
2019-05-19T21:28:06.588Z,44.43
2019-05-19T21:30:36.020Z,44.47
2019-05-19T21:33:05.795Z,44.13
2019-05-19T21:35:35.602Z,43.43
2019-05-19T21:38:05.099Z,44.20
2019-05-19T21:40:34.526Z,45.90
2019-05-19T21:43:03.980Z,45.27
2019-05-19T21:45:33.410Z,45.47
2019-05-19T21:48:02.859Z,44.27
2019-05-19T21:50:32.480Z,45.50
2019-05-19T21:53:01.976Z,44.30
2019-05-19T21:55:31.792Z,45.97
2019-05-19T21:58:01.208Z,42.97
2019-05-19T22:00:31.401Z,43.90
2019-05-19T22:03:00.844Z,44.27
2019-05-19T22:05:30.271Z,41.63
2019-05-19T22:08:06.930Z,43.03
2019-05-19T22:10:36.356Z,42.90
2019-05-19T22:13:05.800Z,41.00
2019-05-19T22:15:35.299Z,40.67
2019-05-19T22:18:04.821Z,41.37
2019-05-19T22:20:34.587Z,40.73
2019-05-19T22:23:04.396Z,42.83
2019-05-19T22:25:33.911Z,38.17
2019-05-19T22:28:03.346Z,41.83
2019-05-19T22:30:32.818Z,40.90
2019-05-19T22:33:02.303Z,40.87
2019-05-19T22:35:32.100Z,42.90
2019-05-19T22:38:01.547Z,38.13
2019-05-19T22:40:31.065Z,41.07
2019-05-19T22:43:00.509Z,40.93
2019-05-19T22:45:29.931Z,41.13
2019-05-19T22:47:59.710Z,38.77
2019-05-19T22:50:29.149Z,40.73
2019-05-19T22:52:58.574Z,35.87
2019-05-19T22:55:28.014Z,36.03
2019-05-19T22:57:57.820Z,35.47
2019-05-19T23:00:27.602Z,33.83
2019-05-19T23:02:57.043Z,35.43
2019-05-19T23:05:45.808Z,36.00
2019-05-19T23:08:15.318Z,36.03
2019-05-19T23:10:44.739Z,34.90
2019-05-19T23:13:14.189Z,35.07
2019-05-19T23:15:43.627Z,34.37
2019-05-19T23:18:13.042Z,34.90
2019-05-19T23:20:42.564Z,34.23
2019-05-19T23:23:11.990Z,33.97
2019-05-19T23:25:41.796Z,33.57
2019-05-19T23:28:11.243Z,34.97
2019-05-19T23:30:40.687Z,33.33
2019-05-19T23:33:10.131Z,31.70
2019-05-19T23:35:39.562Z,32.03
2019-05-19T23:38:09.004Z,30.90
2019-05-19T23:40:38.434Z,30.30
2019-05-19T23:43:07.890Z,30.67
2019-05-19T23:45:37.329Z,31.87
2019-05-19T23:48:07.114Z,30.90
2019-05-19T23:50:36.548Z,32.83
2019-05-19T23:53:05.975Z,30.50
2019-05-19T23:55:35.436Z,32.23
2019-05-19T23:58:04.948Z,29.27
